createdAt,value
2022-09-21T00:03:25.304Z,11.41
2022-09-21T00:08:18.550Z,11.25
2022-09-21T00:13:16.323Z,11.22
2022-09-21T00:18:11.788Z,11.15
2022-09-21T00:23:05.020Z,11.01
2022-09-21T00:27:58.300Z,11.08
2022-09-21T00:32:51.541Z,11.05
2022-09-21T00:37:46.252Z,11.05
2022-09-21T00:42:40.403Z,10.95
2022-09-21T00:47:37.955Z,10.84
2022-09-21T00:52:36.630Z,10.69
2022-09-21T00:57:35.513Z,10.68
2022-09-21T01:02:29.534Z,10.63
2022-09-21T01:07:28.816Z,10.65
2022-09-21T01:12:54.269Z,10.57
2022-09-21T01:17:57.499Z,10.34
2022-09-21T01:23:15.972Z,10.46
2022-09-21T01:28:29.316Z,10.48
2022-09-21T01:33:31.676Z,10.44
2022-09-21T01:38:29.875Z,10.44
2022-09-21T01:43:32.461Z,10.33
2022-09-21T01:48:27.515Z,10.38
2022-09-21T01:53:29.699Z,10.16
2022-09-21T01:58:33.216Z,9.91
2022-09-21T02:03:34.945Z,10.05
2022-09-21T02:08:32.090Z,10.03
2022-09-21T02:13:29.744Z,9.96
2022-09-21T02:18:41.408Z,10.12
2022-09-21T02:23:43.968Z,9.73
2022-09-21T02:28:48.710Z,9.78
2022-09-21T02:33:57.998Z,9.95
2022-09-21T02:39:05.127Z,9.85
2022-09-21T02:44:07.390Z,9.92
2022-09-21T02:49:08.664Z,9.82
2022-09-21T02:54:07.913Z,9.88
2022-09-21T02:59:05.713Z,9.62
2022-09-21T03:03:59.362Z,9.39
2022-09-21T03:08:54.254Z,9.36
2022-09-21T03:13:48.259Z,9.33
2022-09-21T03:18:44.389Z,9.13
2022-09-21T03:23:37.894Z,9.23
2022-09-21T03:28:32.561Z,9.11
2022-09-21T03:33:26.260Z,9.00
2022-09-21T03:38:21.587Z,9.01
2022-09-21T03:43:15.068Z,9.06
2022-09-21T03:48:11.550Z,9.01
2022-09-21T03:53:05.706Z,9.11
2022-09-21T03:57:58.994Z,9.29
2022-09-21T04:02:52.301Z,9.19
2022-09-21T04:07:47.320Z,9.05
2022-09-21T04:12:43.845Z,9.08
2022-09-21T04:17:37.087Z,9.06
2022-09-21T04:22:31.459Z,9.17
2022-09-21T04:27:26.143Z,8.76
2022-09-21T04:32:19.309Z,8.83
2022-09-21T04:37:12.724Z,8.89
2022-09-21T04:42:06.624Z,9.02
2022-09-21T04:47:01.284Z,9.13
2022-09-21T04:51:54.778Z,9.23
2022-09-21T04:56:48.050Z,9.09
2022-09-21T05:01:41.367Z,8.83
2022-09-21T05:06:36.133Z,8.70
2022-09-21T05:11:29.458Z,8.79
2022-09-21T05:16:22.707Z,8.75
2022-09-21T05:21:16.667Z,9.02
2022-09-21T05:26:11.295Z,9.11
2022-09-21T05:31:20.486Z,8.99
2022-09-21T05:36:38.302Z,8.67
2022-09-21T05:41:33.964Z,8.67
2022-09-21T05:46:39.655Z,8.55
2022-09-21T05:51:44.258Z,8.77
2022-09-21T05:56:54.878Z,8.83
2022-09-21T06:02:05.497Z,9.08
2022-09-21T06:06:58.762Z,9.15
2022-09-21T06:11:53.837Z,9.26
2022-09-21T06:16:47.103Z,9.41
2022-09-21T06:21:40.383Z,9.60
2022-09-21T06:26:33.909Z,10.03
2022-09-21T06:31:29.826Z,9.93
2022-09-21T06:36:23.595Z,10.00
2022-09-21T06:41:21.219Z,10.18
2022-09-21T06:46:14.929Z,10.13
2022-09-21T06:51:10.933Z,10.26
2022-09-21T06:56:06.520Z,10.39
2022-09-21T07:00:59.879Z,10.46
2022-09-21T07:05:53.282Z,10.73
2022-09-21T07:10:48.010Z,10.75
2022-09-21T07:15:41.299Z,11.01
2022-09-21T07:20:34.607Z,11.06
2022-09-21T07:25:27.941Z,11.00
2022-09-21T07:30:22.821Z,11.22
2022-09-21T07:35:17.533Z,11.43
2022-09-21T07:40:12.149Z,11.37
2022-09-21T07:45:06.274Z,11.60
2022-09-21T07:50:01.035Z,11.77
2022-09-21T07:54:54.366Z,12.09
2022-09-21T07:59:48.730Z,12.40
2022-09-21T08:04:41.966Z,12.66
2022-09-21T08:09:36.565Z,12.99
2022-09-21T08:14:29.847Z,12.85
2022-09-21T08:19:25.850Z,13.19
2022-09-21T08:24:19.790Z,13.34
2022-09-21T08:29:14.591Z,13.36
2022-09-21T08:34:07.917Z,13.56
2022-09-21T08:39:01.194Z,13.87
2022-09-21T08:43:59.895Z,14.14
2022-09-21T08:49:01.342Z,14.14
2022-09-21T08:53:59.501Z,14.25
2022-09-21T08:58:52.897Z,14.32
2022-09-21T09:04:25.360Z,14.65
2022-09-21T09:09:56.316Z,14.95
2022-09-21T09:15:16.411Z,15.02
2022-09-21T09:20:19.810Z,15.02
2022-09-21T09:25:22.497Z,15.16
2022-09-21T09:30:21.547Z,15.31
2022-09-21T09:35:28.476Z,15.25
2022-09-21T09:40:43.302Z,15.43
2022-09-21T09:45:54.700Z,15.52
2022-09-21T09:50:49.596Z,15.63
2022-09-21T09:55:47.975Z,15.92
2022-09-21T10:00:41.789Z,15.95
2022-09-21T10:05:38.282Z,15.71
2022-09-21T10:10:37.547Z,15.51
2022-09-21T10:15:31.173Z,15.60
2022-09-21T10:20:25.394Z,15.89
2022-09-21T10:25:21.263Z,16.00
2022-09-21T10:30:38.569Z,16.14
2022-09-21T10:35:31.940Z,16.05
2022-09-21T10:40:30.810Z,16.11
2022-09-21T10:45:29.127Z,15.86
2022-09-21T10:50:29.078Z,16.08
2022-09-21T10:55:25.224Z,16.16
2022-09-21T11:00:38.675Z,16.26
2022-09-21T11:05:39.161Z,16.19
2022-09-21T11:10:49.089Z,15.99
2022-09-21T11:15:52.814Z,16.01
2022-09-21T11:20:54.052Z,16.01
2022-09-21T11:26:00.495Z,15.85
2022-09-21T11:31:40.191Z,15.87
2022-09-21T11:36:47.872Z,16.01
2022-09-21T11:42:03.896Z,16.01
2022-09-21T11:47:18.836Z,16.09
2022-09-21T11:52:39.266Z,16.16
2022-09-21T11:57:44.663Z,16.16
2022-09-21T12:03:23.709Z,16.30
2022-09-21T12:08:45.564Z,16.20
2022-09-21T12:13:52.022Z,16.07
2022-09-21T12:18:59.224Z,16.20
2022-09-21T12:23:57.310Z,16.22
2022-09-21T12:28:56.382Z,16.42
2022-09-21T12:33:55.265Z,16.32
2022-09-21T12:39:00.365Z,16.30
2022-09-21T12:44:06.837Z,16.30
2022-09-21T12:49:13.108Z,16.29
2022-09-21T12:54:19.051Z,16.30
2022-09-21T12:59:36.509Z,16.29
2022-09-21T13:04:44.719Z,16.33
2022-09-21T13:09:43.185Z,16.21
2022-09-21T13:14:44.565Z,16.23
2022-09-21T13:19:39.419Z,16.36
2022-09-21T13:24:33.000Z,16.25
2022-09-21T13:29:34.217Z,16.23
2022-09-21T13:34:33.602Z,16.29
2022-09-21T13:39:28.817Z,16.26
2022-09-21T13:44:43.268Z,16.35
2022-09-21T13:49:54.836Z,16.28
2022-09-21T13:54:57.767Z,16.29
2022-09-21T14:00:33.425Z,16.30
2022-09-21T14:05:35.012Z,16.36
2022-09-21T14:10:33.045Z,16.46
2022-09-21T14:15:40.359Z,16.38
2022-09-21T14:20:39.568Z,16.39
2022-09-21T14:25:53.159Z,16.34
2022-09-21T14:30:58.960Z,16.43
2022-09-21T14:35:54.138Z,16.38
2022-09-21T14:40:52.384Z,16.48
2022-09-21T14:46:18.187Z,16.49
2022-09-21T14:51:23.903Z,16.33
2022-09-21T14:56:44.151Z,16.36
2022-09-21T15:01:41.469Z,16.32
2022-09-21T15:07:09.984Z,16.24
2022-09-21T15:12:16.543Z,16.26
2022-09-21T15:17:25.732Z,16.16
2022-09-21T15:22:21.745Z,16.18
2022-09-21T15:27:20.043Z,16.13
2022-09-21T15:32:31.442Z,16.01
2022-09-21T15:37:24.759Z,16.09
2022-09-21T15:42:23.539Z,16.09
2022-09-21T15:47:21.467Z,15.93
2022-09-21T15:52:25.096Z,15.90
2022-09-21T15:57:38.460Z,15.86
2022-09-21T16:02:40.324Z,15.77
2022-09-21T16:07:35.921Z,15.81
2022-09-21T16:12:45.986Z,15.75
2022-09-21T16:17:40.060Z,15.64
2022-09-21T16:22:42.199Z,15.58
2022-09-21T16:27:35.652Z,15.46
2022-09-21T16:32:33.469Z,15.35
2022-09-21T16:37:29.912Z,15.31
2022-09-21T16:42:27.914Z,15.27
2022-09-21T16:47:25.152Z,15.17
2022-09-21T16:52:19.859Z,15.14
2022-09-21T16:57:14.347Z,15.13
2022-09-21T17:02:08.592Z,14.92
2022-09-21T17:07:04.962Z,14.88
2022-09-21T17:12:01.604Z,14.77
2022-09-21T17:16:58.830Z,14.70
2022-09-21T17:21:52.322Z,14.55
2022-09-21T17:26:46.031Z,14.56
2022-09-21T17:31:41.167Z,14.52
2022-09-21T17:36:35.058Z,14.15
2022-09-21T17:41:39.808Z,14.21
2022-09-21T17:46:47.265Z,14.11
2022-09-21T17:51:58.805Z,14.19
2022-09-21T17:57:03.751Z,13.95
2022-09-21T18:02:00.207Z,13.86
2022-09-21T18:06:54.555Z,13.88
2022-09-21T18:12:48.566Z,13.78
2022-09-21T18:18:06.475Z,13.69
2022-09-21T18:23:11.869Z,13.66
2022-09-21T18:28:18.320Z,13.73
2022-09-21T18:33:25.568Z,13.65
2022-09-21T18:38:28.396Z,13.64
2022-09-21T18:43:41.791Z,13.56
2022-09-21T18:48:57.224Z,13.58
2022-09-21T18:53:55.844Z,13.39
2022-09-21T18:58:50.651Z,13.31
2022-09-21T19:03:46.549Z,13.27
2022-09-21T19:08:50.338Z,13.11
2022-09-21T19:13:57.284Z,13.00
2022-09-21T19:19:11.306Z,13.18
2022-09-21T19:24:19.688Z,13.25
2022-09-21T19:29:49.832Z,12.99
2022-09-21T19:34:45.511Z,13.03
2022-09-21T19:39:39.772Z,12.80
2022-09-21T19:44:54.221Z,12.82
2022-09-21T19:49:54.673Z,12.95
2022-09-21T19:55:06.627Z,12.70
2022-09-21T20:00:06.314Z,12.55
2022-09-21T20:05:09.323Z,12.13
2022-09-21T20:10:42.149Z,12.10
2022-09-21T20:15:42.805Z,11.91
2022-09-21T20:20:38.111Z,11.81
2022-09-21T20:25:38.379Z,12.25
2022-09-21T20:30:36.015Z,11.95
2022-09-21T20:35:31.694Z,12.12
2022-09-21T20:40:29.155Z,12.04
2022-09-21T20:45:23.773Z,12.10
2022-09-21T20:50:17.840Z,12.00
2022-09-21T20:55:15.102Z,11.59
2022-09-21T21:00:13.592Z,11.51
2022-09-21T21:05:10.365Z,11.40
2022-09-21T21:10:03.910Z,11.41
2022-09-21T21:14:59.135Z,11.26
2022-09-21T21:19:53.790Z,11.16
2022-09-21T21:24:47.208Z,11.17
2022-09-21T21:29:40.456Z,11.21
2022-09-21T21:34:33.725Z,11.30
2022-09-21T21:39:28.354Z,11.20
2022-09-21T21:44:21.579Z,11.06
2022-09-21T21:49:14.873Z,10.93
2022-09-21T21:54:08.494Z,10.90
2022-09-21T21:59:03.107Z,10.89
2022-09-21T22:03:58.932Z,10.88
2022-09-21T22:08:52.734Z,10.73
2022-09-21T22:13:47.050Z,10.68
2022-09-21T22:18:42.994Z,10.71
2022-09-21T22:23:36.902Z,10.40
2022-09-21T22:28:30.334Z,10.44
2022-09-21T22:33:23.680Z,10.38
2022-09-21T22:38:18.623Z,10.21
2022-09-21T22:43:11.872Z,10.19
2022-09-21T22:48:05.171Z,10.09
2022-09-21T22:52:58.359Z,10.10
2022-09-21T22:57:52.989Z,10.01
2022-09-21T23:02:46.323Z,10.13
2022-09-21T23:07:39.524Z,10.10
2022-09-21T23:12:33.117Z,9.80
2022-09-21T23:17:29.350Z,9.69
2022-09-21T23:22:22.678Z,9.72
2022-09-21T23:27:15.940Z,9.80
2022-09-21T23:32:09.147Z,9.89
2022-09-21T23:37:03.767Z,9.77
2022-09-21T23:41:57.029Z,9.61
2022-09-21T23:46:50.519Z,9.53
2022-09-21T23:51:43.945Z,9.38
2022-09-21T23:56:38.677Z,9.36
